Roscoe, MO

6:23 AM CDT on September 19, 2014 (GMT -0500)
Clinton Memorial | Change Station
CLOSE
Current Station
Airport
Location: Clinton,
Elevation: 823 ft
Nearby Weather Stations
Active Advisory: Dense Fog Advisory

Elev 823 ft 38.36 °N, 93.68 °W | Updated 8 minutes ago

Clear
Clear
59 °F
Feels Like 59 °F
N
0
Wind Variable Wind from North

Today
High -- | Low -- °F
--% Chance of Precip.
Yesterday
High -- | Low -- °F
Precip. -- in
7:00 AM 7:16 PM
Waning Crescent, 20% visible
Pressure 30.04 in
Visibility 2.5 miles
Clouds Clear
Dew Point 59 °F
Humidity 100%
Rainfall 0.00 in
Snow Depth Not available.
UV 0 out of 12
Pollen 7.00 out of 12
Air Quality Not available.
Flu Activity Not available.
METAR KGLY 191115Z AUTO 00000KT 2 1/2SM BR CLR 15/15 A3004 RMK AO2

More Conditions Fewer Conditions

Pressure 30.04 in
Visibility 2.5 miles
Clouds Clear
Dew Point 59 °F
Humidity 100%
Rainfall 0.00 in
Snow Depth Not available.
UV 0 out of 12
Pollen 7.00 out of 12
Air Quality Not available.
Flu Activity Not available.
METAR KGLY 191115Z AUTO 00000KT 2 1/2SM BR CLR 15/15 A3004 RMK AO2

More Conditions Fewer Conditions

10-Day Weather Forecast

Almanac

Astronomy

Sep. 19, 2014 Rise Set
Actual Time 7:00 AM CDT 7:16 PM CDT
Civil Twilight 6:34 AM CDT 7:43 PM CDT
Nautical Twilight 6:03 AM CDT 8:13 PM CDT
Astronomical Twilight 5:31 AM CDT 8:45 PM CDT
Moon 2:49 AM CDT 4:43 PM CDT
Length of Visible Light 13h 08m
Length of Day
12h 16m
Tomorrow will be 2m 25s shorter.
Waning Crescent, 20% of the Moon is Illuminated
Today
Waning Crescent
Sep 24
New
Oct 1
First Quarter
Oct 8
Full
Oct 15
Last Quarter

Today's Extremes

State Highs State Lows

Community

WunderPhotos

Upload Photos

1,754,596 photos uploaded!

WunderBlogs® & News

Nearby

Snow Depth

Station Depth Elevation
No new snow has been reported.

Earthquake Activity

City Distance Mag. Time & Date
No recent earthquake activity has been reported nearby.
Minimum magnitude displayed is 2.5.

Coastal Water Temperatures

Place Temperature
No Stations Reporting

Nearby Weather Stations